METAR Data
IDs: Format: Raw Decoded Include TAF

Data at: 1037 UTC 19 Jan 2019

KHWD 190954Z AUTO 07004KT 10SM SCT035 OVC043 14/09 A3036 RMK AO2 SLP290 T01390089
No TAF found for KHWD

KRDD 190453Z 32003KT 4SM BR SCT013 BKN029 OVC033 08/07 A3034

KRDD 190536Z 1906/2006 VRB04KT 4SM BR SCT015 OVC030
  TEMPO 1909/1913 2SM -RA BR OVC007
  FM192000 15007KT 5SM BR VCSH OVC015


KRTS 191015Z AUTO 05004KT 10SM BKN035 OVC041 04/02 A3033 RMK AO2
No TAF found for KRTS